Time;durP1;ratioP1;P1;durP2;ratioP2;P2;SDS_P1;SDS_P2;PMS_P1;PMS_P2;Temp;Humidity;BMP_temperature;BMP_pressure;BME280_temperature;BME280_humidity;BME280_pressure;Samples;Min_cycle;Max_cycle;Signal;HPM_P1;HPM_P2
2022/04/14 00:00:17;;;;;;;8.75;6.90;;;13.30;99.90;;;;;;5099160;28;20035;-72
2022/04/14 00:02:43;;;;;;;11.07;6.70;;;13.30;99.90;;;;;;5116340;28;20036;-72
2022/04/14 00:05:09;;;;;;;10.82;6.82;;;13.00;99.90;;;;;;5116196;28;20364;-72
2022/04/14 00:07:36;;;;;;;10.23;7.22;;;13.10;99.90;;;;;;5099121;28;20329;-72
2022/04/14 00:10:06;;;;;;;11.02;7.00;;;13.20;99.90;;;;;;5122612;27;20047;-72
2022/04/14 00:12:32;;;;;;;10.48;7.30;;;13.20;99.90;;;;;;5098846;28;20035;-73
2022/04/14 00:14:58;;;;;;;13.13;7.90;;;13.40;99.90;;;;;;5101605;27;20312;-72
2022/04/14 00:17:24;;;;;;;12.40;7.78;;;13.10;99.90;;;;;;5162977;27;20034;-75
2022/04/14 00:19:50;;;;;;;10.65;7.18;;;13.50;99.90;;;;;;5163114;27;20384;-71
2022/04/14 00:22:16;;;;;;;10.55;6.95;;;13.10;99.90;;;;;;5146375;27;20037;-72
2022/04/14 00:24:42;;;;;;;14.25;7.82;;;13.20;99.90;;;;;;5163418;27;20221;-72
2022/04/14 00:27:08;;;;;;;11.07;7.30;;;12.90;99.90;;;;;;5162975;27;20065;-72
2022/04/14 00:29:34;;;;;;;10.88;7.57;;;13.30;99.90;;;;;;5129056;27;20027;-73
2022/04/14 00:31:59;;;;;;;13.18;8.48;;;13.10;99.90;;;;;;5128512;27;20019;-72
2022/04/14 00:34:25;;;;;;;12.57;8.13;;;12.80;99.90;;;;;;5128845;27;20091;-73
2022/04/14 00:36:51;;;;;;;13.68;8.63;;;12.70;99.90;;;;;;5145677;27;20027;-74
2022/04/14 00:39:16;;;;;;;12.73;8.32;;;13.10;99.90;;;;;;5163129;27;20102;-73
2022/04/14 00:41:43;;;;;;;14.27;8.20;;;13.20;99.90;;;;;;5163145;27;20063;-72
2022/04/14 00:44:08;;;;;;;13.02;8.50;;;13.20;99.90;;;;;;5145412;27;20030;-73
2022/04/14 00:46:34;;;;;;;12.55;8.98;;;13.10;99.90;;;;;;5145526;27;20044;-73
2022/04/14 00:49:00;;;;;;;14.07;8.38;;;13.00;99.90;;;;;;5145242;27;20042;-72
2022/04/14 00:51:29;;;;;;;12.95;8.15;;;13.20;99.90;;;;;;5182754;27;20074;-72
2022/04/14 00:53:54;;;;;;;12.07;9.05;;;12.70;99.90;;;;;;5148499;27;20035;-73
2022/04/14 00:56:20;;;;;;;15.38;9.98;;;12.90;99.90;;;;;;5148889;27;20030;-72
2022/04/14 00:58:46;;;;;;;12.23;8.32;;;12.70;99.90;;;;;;5166236;27;20072;-74
2022/04/14 01:01:12;;;;;;;13.30;9.43;;;12.80;99.90;;;;;;5148476;27;20062;-73
2022/04/14 01:03:40;;;;;;;14.95;8.90;;;12.90;99.90;;;;;;5149072;27;20042;-72
2022/04/14 01:06:07;;;;;;;15.88;9.45;;;13.00;99.90;;;;;;5165535;27;20205;-72
2022/04/14 01:08:33;;;;;;;12.93;9.38;;;12.50;99.90;;;;;;5165964;27;20209;-71
2022/04/14 01:10:59;;;;;;;13.60;9.40;;;12.60;99.90;;;;;;5148300;27;20046;-73
2022/04/14 01:13:25;;;;;;;14.25;9.40;;;12.50;99.90;;;;;;5148582;27;20022;-72
2022/04/14 01:15:57;;;;;;;14.82;8.95;;;12.60;99.90;;;;;;5114351;27;20216;-72
2022/04/14 01:18:23;;;;;;;14.60;10.23;;;12.90;99.90;;;;;;5165786;27;20069;-72
2022/04/14 01:20:48;;;;;;;13.93;9.43;;;12.70;99.90;;;;;;5131536;27;20049;-72
2022/04/14 01:23:19;;;;;;;16.00;10.38;;;12.50;99.90;;;;;;5148300;27;20332;-72
2022/04/14 01:25:46;;;;;;;13.90;9.45;;;12.90;99.90;;;;;;5165849;27;20034;-71
2022/04/14 01:28:12;;;;;;;14.73;10.40;;;12.60;99.90;;;;;;5165233;27;20042;-72
2022/04/14 01:30:37;;;;;;;15.07;9.48;;;12.60;99.90;;;;;;5148545;27;20066;-73
2022/04/14 01:33:03;;;;;;;16.67;9.70;;;12.40;99.90;;;;;;5165059;27;20022;-71
2022/04/14 01:35:29;;;;;;;15.45;9.95;;;12.40;99.90;;;;;;5148299;27;20073;-72
2022/04/14 01:37:55;;;;;;;13.63;9.95;;;12.30;99.90;;;;;;5147909;27;20213;-72
2022/04/14 01:40:21;;;;;;;16.73;10.77;;;12.70;99.90;;;;;;5165485;27;20335;-72
2022/04/14 01:42:47;;;;;;;15.95;10.60;;;12.50;99.90;;;;;;5148394;27;20030;-73
2022/04/14 01:45:12;;;;;;;14.38;9.82;;;12.40;99.90;;;;;;5148041;27;20114;-71
2022/04/14 01:47:40;;;;;;;16.60;10.93;;;12.40;99.90;;;;;;5148185;27;20026;-71
2022/04/14 01:50:07;;;;;;;16.75;10.55;;;12.70;99.90;;;;;;5147641;27;20140;-71
2022/04/14 01:52:33;;;;;;;17.70;11.43;;;12.70;99.90;;;;;;5147991;27;20034;-73
2022/04/14 01:54:59;;;;;;;17.02;11.40;;;12.30;99.90;;;;;;5165262;27;20300;-71
2022/04/14 01:57:25;;;;;;;17.67;11.95;;;12.30;99.90;;;;;;5165415;27;20022;-71
2022/04/14 01:59:50;;;;;;;16.05;11.32;;;12.40;99.90;;;;;;5130982;27;20042;-72
2022/04/14 02:02:16;;;;;;;16.60;11.27;;;12.20;99.90;;;;;;5164974;27;20144;-73
2022/04/14 02:04:42;;;;;;;16.88;11.20;;;12.60;99.90;;;;;;5151722;27;20030;-72
2022/04/14 02:07:09;;;;;;;14.55;11.05;;;12.50;99.90;;;;;;5151803;27;20030;-72
2022/04/14 02:09:36;;;;;;;16.95;10.70;;;12.70;99.90;;;;;;5169639;27;20030;-71
2022/04/14 02:12:04;;;;;;;18.27;11.80;;;12.40;99.90;;;;;;5151798;27;20244;-71
2022/04/14 02:14:30;;;;;;;17.15;11.57;;;12.60;99.90;;;;;;5169287;27;20471;-71
2022/04/14 02:16:55;;;;;;;14.98;11.02;;;12.80;99.90;;;;;;5151806;27;20026;-71
2022/04/14 02:19:21;;;;;;;17.23;11.43;;;12.50;99.90;;;;;;5152114;27;20097;-71
2022/04/14 02:21:47;;;;;;;18.40;11.60;;;12.70;99.90;;;;;;5135029;27;20038;-71
2022/04/14 02:24:12;;;;;;;13.15;9.68;;;12.20;99.90;;;;;;5134706;27;20754;-72
2022/04/14 02:26:38;;;;;;;14.57;10.32;;;12.60;99.90;;;;;;5169017;27;20045;-71
2022/04/14 02:29:04;;;;;;;15.52;11.55;;;12.30;99.90;;;;;;5168736;27;20314;-73
2022/04/14 02:31:30;;;;;;;15.68;11.02;;;12.40;99.90;;;;;;5134665;27;20037;-70
2022/04/14 02:33:55;;;;;;;17.65;11.55;;;12.40;99.90;;;;;;5151398;27;20124;-70
2022/04/14 02:36:21;;;;;;;16.73;11.50;;;12.30;99.90;;;;;;5151725;27;20101;-72
2022/04/14 02:38:46;;;;;;;13.48;10.05;;;12.50;99.90;;;;;;5168982;27;20033;-72
2022/04/14 02:41:12;;;;;;;17.15;11.57;;;12.10;99.90;;;;;;5151291;27;20022;-72
2022/04/14 02:43:38;;;;;;;18.85;10.48;;;12.60;99.90;;;;;;5168971;27;20023;-71
2022/04/14 02:46:04;;;;;;;16.77;10.60;;;12.40;99.90;;;;;;5168501;27;20071;-71
2022/04/14 02:48:31;;;;;;;19.33;10.73;;;12.20;99.90;;;;;;5134460;27;20243;-72
2022/04/14 02:50:57;;;;;;;16.48;12.00;;;12.30;99.90;;;;;;5133855;27;20054;-72
2022/04/14 02:53:22;;;;;;;16.30;11.75;;;12.20;99.90;;;;;;5168652;27;20071;-72
2022/04/14 02:55:48;;;;;;;17.85;11.73;;;12.50;99.90;;;;;;5151399;27;20022;-71
2022/04/14 02:58:14;;;;;;;15.25;12.02;;;12.10;99.90;;;;;;5116686;27;20518;-72
2022/04/14 03:00:40;;;;;;;19.25;12.98;;;12.30;99.90;;;;;;5168501;27;20328;-72
2022/04/14 03:03:06;;;;;;;20.08;13.63;;;12.50;99.90;;;;;;5168268;27;20046;-72
2022/04/14 03:05:31;;;;;;;16.23;12.38;;;12.20;99.90;;;;;;5168547;27;20030;-72
2022/04/14 03:07:57;;;;;;;20.42;13.60;;;12.60;99.90;;;;;;5133547;27;20085;-72
2022/04/14 03:10:23;;;;;;;19.25;14.68;;;12.60;99.90;;;;;;5151150;27;20029;-72
2022/04/14 03:12:50;;;;;;;22.38;15.10;;;12.30;99.90;;;;;;5150857;27;20026;-72
2022/04/14 03:15:16;;;;;;;22.35;15.50;;;12.80;99.90;;;;;;5167384;27;20090;-72
2022/04/14 03:17:43;;;;;;;22.35;15.32;;;12.30;99.90;;;;;;5150971;27;20034;-73
2022/04/14 03:20:11;;;;;;;21.77;15.18;;;12.30;99.90;;;;;;5167869;27;20030;-72
2022/04/14 03:22:37;;;;;;;19.30;13.63;;;12.50;99.90;;;;;;5168254;27;20029;-74
2022/04/14 03:25:07;;;;;;;22.45;14.85;;;12.60;99.90;;;;;;5150334;27;20074;-73
2022/04/14 03:27:33;;;;;;;24.25;14.27;;;12.70;99.90;;;;;;5150991;27;20360;-72
2022/04/14 03:29:59;;;;;;;24.67;16.70;;;12.80;99.90;;;;;;5150079;27;20030;-72
2022/04/14 03:32:25;;;;;;;23.52;14.63;;;12.90;99.90;;;;;;5167892;27;20030;-73
2022/04/14 03:34:52;;;;;;;21.88;16.38;;;12.50;99.90;;;;;;5167849;27;20042;-74
2022/04/14 03:37:18;;;;;;;25.52;16.35;;;12.70;99.90;;;;;;5167440;27;20101;-73
2022/04/14 03:39:44;;;;;;;24.17;16.83;;;12.80;99.90;;;;;;5167945;27;20139;-73
2022/04/14 03:42:10;;;;;;;24.15;17.65;;;12.50;99.90;;;;;;5150237;27;20213;-72
2022/04/14 03:44:35;;;;;;;28.15;19.20;;;12.60;99.90;;;;;;5150425;27;20026;-72
2022/04/14 03:47:01;;;;;;;25.55;17.95;;;12.70;99.90;;;;;;5149928;27;20046;-73
2022/04/14 03:49:27;;;;;;;26.00;17.77;;;12.70;99.90;;;;;;5167637;27;20097;-73
2022/04/14 03:51:54;;;;;;;28.27;19.45;;;12.90;99.90;;;;;;5167343;27;20046;-73
2022/04/14 03:54:20;;;;;;;26.92;18.52;;;12.60;99.90;;;;;;5167132;27;20030;-73
2022/04/14 03:56:47;;;;;;;30.08;18.50;;;12.80;99.90;;;;;;5150360;27;20071;-72
2022/04/14 03:59:13;;;;;;;29.63;18.60;;;12.50;99.90;;;;;;5149700;27;20030;-72
2022/04/14 04:01:39;;;;;;;33.15;20.85;;;12.40;99.90;;;;;;5150131;27;20026;-72
2022/04/14 04:04:05;;;;;;;28.15;20.05;;;12.60;99.90;;;;;;5149591;27;20069;-72
2022/04/14 04:06:31;;;;;;;32.35;20.67;;;12.90;99.90;;;;;;5149764;27;20046;-72
2022/04/14 04:08:56;;;;;;;28.98;20.98;;;13.10;99.90;;;;;;5149935;27;20101;-73
2022/04/14 04:11:22;;;;;;;31.88;19.05;;;13.20;99.90;;;;;;5166801;27;20061;-73
2022/04/14 04:13:48;;;;;;;30.25;20.17;;;12.80;99.90;;;;;;5167064;27;20034;-73
2022/04/14 04:16:14;;;;;;;28.60;19.90;;;12.40;99.90;;;;;;5149236;27;20224;-72
2022/04/14 04:18:39;;;;;;;31.40;21.05;;;12.90;99.90;;;;;;5149689;27;20042;-73
2022/04/14 04:21:05;;;;;;;29.02;19.73;;;12.40;99.90;;;;;;5131943;27;20026;-72
2022/04/14 04:23:30;;;;;;;31.23;22.10;;;12.90;99.90;;;;;;5132524;27;20023;-73
2022/04/14 04:25:56;;;;;;;32.10;20.60;;;13.00;99.90;;;;;;5166600;27;20322;-72
2022/04/14 04:28:22;;;;;;;32.35;21.88;;;12.40;99.90;;;;;;5131093;27;20031;-73
2022/04/14 04:30:48;;;;;;;32.97;21.65;;;12.50;99.90;;;;;;5166583;27;20026;-74
2022/04/14 04:33:14;;;;;;;33.72;22.27;;;12.80;99.90;;;;;;5148937;27;20085;-73
2022/04/14 04:35:39;;;;;;;36.22;23.15;;;12.50;99.90;;;;;;5132300;27;20026;-73
2022/04/14 04:38:05;;;;;;;33.65;23.65;;;12.70;99.90;;;;;;5148537;27;20102;-73
2022/04/14 04:40:31;;;;;;;35.08;21.98;;;13.10;99.90;;;;;;5166185;27;20102;-74
2022/04/14 04:42:57;;;;;;;32.83;22.73;;;13.00;99.90;;;;;;5148933;27;20041;-73
2022/04/14 04:45:22;;;;;;;34.95;23.13;;;12.50;99.90;;;;;;5148624;27;20045;-73
2022/04/14 04:47:48;;;;;;;31.63;21.58;;;12.80;99.90;;;;;;5166028;27;20087;-75
2022/04/14 04:50:14;;;;;;;30.63;21.73;;;12.60;99.90;;;;;;5165551;27;20062;-73
2022/04/14 04:52:39;;;;;;;36.50;23.02;;;12.60;99.90;;;;;;5114560;27;20053;-73
2022/04/14 04:55:06;;;;;;;35.38;24.20;;;12.50;99.90;;;;;;5166022;27;20037;-74
2022/04/14 04:57:32;;;;;;;33.97;23.25;;;12.50;99.90;;;;;;5148725;27;20030;-73
2022/04/14 04:59:58;;;;;;;35.45;23.63;;;12.50;99.90;;;;;;5148698;27;20101;-73
2022/04/14 05:02:23;;;;;;;37.22;23.40;;;12.80;99.90;;;;;;5148149;27;20121;-73
2022/04/14 05:04:49;;;;;;;38.88;24.25;;;13.10;99.90;;;;;;5165888;27;20049;-73
2022/04/14 05:07:15;;;;;;;38.95;23.23;;;12.60;99.90;;;;;;5131048;27;20086;-73
2022/04/14 05:09:40;;;;;;;34.22;21.88;;;12.60;99.90;;;;;;5165875;27;20058;-73
2022/04/14 05:12:06;;;;;;;31.35;20.83;;;12.90;99.90;;;;;;5148718;27;20026;-74
2022/04/14 05:14:32;;;;;;;32.42;21.30;;;12.90;99.90;;;;;;5165539;27;20027;-73
2022/04/14 05:16:58;;;;;;;36.83;24.02;;;12.80;99.90;;;;;;5165553;27;20399;-73
2022/04/14 05:19:23;;;;;;;39.47;24.42;;;12.90;99.90;;;;;;5131018;27;20275;-71
2022/04/14 05:21:49;;;;;;;38.30;25.58;;;13.40;99.90;;;;;;5148314;27;20042;-72
2022/04/14 05:24:16;;;;;;;38.33;24.25;;;13.10;99.90;;;;;;5165063;27;20030;-71
2022/04/14 05:26:41;;;;;;;38.83;25.35;;;13.00;99.90;;;;;;5130984;27;20336;-71
2022/04/14 05:29:09;;;;;;;48.00;26.40;;;13.50;99.90;;;;;;5165624;27;20031;-73
2022/04/14 05:31:35;;;;;;;38.63;25.52;;;13.50;99.90;;;;;;5148153;27;20030;-73
2022/04/14 05:34:01;;;;;;;43.90;27.55;;;13.20;99.90;;;;;;5165311;27;20032;-71
2022/04/14 05:36:26;;;;;;;45.38;29.02;;;13.30;99.90;;;;;;5165041;27;20033;-72
2022/04/14 05:38:52;;;;;;;40.53;28.00;;;14.10;99.90;;;;;;5164730;27;20041;-72
2022/04/14 05:41:17;;;;;;;41.72;26.67;;;13.50;99.90;;;;;;5164481;27;20257;-73
2022/04/14 05:43:43;;;;;;;41.38;28.17;;;14.30;99.90;;;;;;5148083;27;20065;-71
2022/04/14 05:46:09;;;;;;;41.72;27.40;;;14.20;99.90;;;;;;5147823;27;20030;-70
2022/04/14 05:48:35;;;;;;;38.63;25.75;;;13.90;99.90;;;;;;5164401;27;20034;-71
2022/04/14 05:51:01;;;;;;;37.72;25.90;;;14.60;99.90;;;;;;5144489;27;20103;-72
2022/04/14 05:53:28;;;;;;;39.83;27.23;;;14.60;99.90;;;;;;5109879;27;20034;-72
2022/04/14 05:55:54;;;;;;;40.00;26.17;;;14.70;99.90;;;;;;5127268;27;20051;-74
2022/04/14 05:58:19;;;;;;;40.70;26.38;;;15.10;99.90;;;;;;5126655;27;20042;-72
2022/04/14 06:00:45;;;;;;;43.33;25.70;;;14.60;99.90;;;;;;5144045;27;20030;-73
2022/04/14 06:03:11;;;;;;;42.70;28.73;;;14.80;99.90;;;;;;5161128;27;20338;-73
2022/04/14 06:05:37;;;;;;;38.00;25.58;;;15.00;99.90;;;;;;5119543;28;20059;-71
2022/04/14 06:08:03;;;;;;;39.55;25.48;;;15.00;99.90;;;;;;5120417;28;20050;-72
2022/04/14 06:10:29;;;;;;;40.42;27.88;;;15.10;99.90;;;;;;5085970;28;20031;-73
2022/04/14 06:12:55;;;;;;;40.88;26.42;;;15.80;99.90;;;;;;5120179;28;20326;-73
2022/04/14 06:15:22;;;;;;;39.40;25.58;;;15.30;99.90;;;;;;5119545;28;20420;-73
2022/04/14 06:17:47;;;;;;;36.58;25.70;;;15.30;99.90;;;;;;5106447;28;20035;-73
2022/04/14 06:20:15;;;;;;;35.95;24.98;;;15.40;99.90;;;;;;5122953;28;20076;-71
2022/04/14 06:22:42;;;;;;;32.63;24.88;;;15.50;99.90;;;;;;5140565;28;20050;-72
2022/04/14 06:25:22;;;;;;;34.88;25.70;;;15.70;99.90;;;;;;5140534;28;20042;-71
2022/04/14 06:27:49;;;;;;;34.10;23.90;;;15.40;99.90;;;;;;5123181;28;20043;-73
2022/04/14 06:30:16;;;;;;;36.47;24.33;;;15.10;99.90;;;;;;5140080;28;20038;-73
2022/04/14 06:32:42;;;;;;;35.55;23.13;;;15.20;99.90;;;;;;5140393;28;20039;-72
2022/04/14 06:35:15;;;;;;;33.30;23.45;;;16.10;99.90;;;;;;5140437;28;20102;-73
2022/04/14 06:37:41;;;;;;;34.65;24.77;;;15.10;99.90;;;;;;5107397;28;20186;-73
2022/04/14 06:40:07;;;;;;;31.73;23.60;;;16.10;99.90;;;;;;5140183;28;20031;-73
2022/04/14 06:42:33;;;;;;;35.10;22.88;;;16.00;99.90;;;;;;5139860;28;20205;-73
2022/04/14 06:44:59;;;;;;;34.95;22.67;;;15.60;99.90;;;;;;5106256;28;20031;-71
2022/04/14 06:47:26;;;;;;;33.47;21.40;;;15.60;99.90;;;;;;5122749;28;20027;-72
2022/04/14 06:49:52;;;;;;;26.67;19.92;;;15.70;99.90;;;;;;5124283;27;20035;-73
2022/04/14 06:52:18;;;;;;;33.00;20.70;;;15.40;99.90;;;;;;5146746;27;20067;-72
2022/04/14 06:54:44;;;;;;;30.67;19.35;;;15.80;99.90;;;;;;5130255;27;20280;-72
2022/04/14 06:57:10;;;;;;;31.83;20.10;;;15.60;99.90;;;;;;5147548;27;20041;-73
2022/04/14 06:59:35;;;;;;;26.65;18.73;;;15.90;99.90;;;;;;5147058;27;20031;-75
2022/04/14 07:02:01;;;;;;;30.50;18.38;;;16.90;99.90;;;;;;5130131;27;20273;-72
2022/04/14 07:04:27;;;;;;;25.20;17.98;;;15.90;99.90;;;;;;5130051;27;20139;-72
2022/04/14 07:06:54;;;;;;;24.42;16.77;;;16.20;99.90;;;;;;5130430;27;20046;-72
2022/04/14 07:09:28;;;;;;;18.70;14.57;;;16.40;99.90;;;;;;5114637;27;20389;-72
2022/04/14 07:11:54;;;;;;;20.45;13.93;;;16.60;99.90;;;;;;5147385;27;20031;-72
2022/04/14 07:14:19;;;;;;;22.55;14.48;;;15.80;99.90;;;;;;5129739;27;20038;-73
2022/04/14 07:16:51;;;;;;;20.48;13.93;;;16.00;99.90;;;;;;5129780;27;20022;-73
2022/04/14 07:19:19;;;;;;;18.48;13.32;;;15.80;99.90;;;;;;5113310;27;20023;-72
2022/04/14 07:21:53;;;;;;;21.13;13.30;;;15.90;99.90;;;;;;5146947;27;20026;-72
2022/04/14 07:24:19;;;;;;;18.48;13.00;;;15.40;99.90;;;;;;5146306;27;20217;-72
2022/04/14 07:26:48;;;;;;;19.88;13.25;;;15.30;99.90;;;;;;5146981;27;20114;-72
2022/04/14 07:29:14;;;;;;;19.98;13.93;;;15.50;99.90;;;;;;5096304;27;20022;-72
2022/04/14 07:31:45;;;;;;;20.05;13.52;;;15.20;99.90;;;;;;5146526;27;20070;-72
2022/04/14 07:34:11;;;;;;;21.30;14.43;;;15.20;99.90;;;;;;5113082;27;20034;-72
2022/04/14 07:36:38;;;;;;;20.00;14.27;;;15.00;99.90;;;;;;5129126;27;20035;-72
2022/04/14 07:39:09;;;;;;;19.92;13.65;;;15.00;99.90;;;;;;5129613;27;20062;-73
2022/04/14 07:41:35;;;;;;;17.52;13.35;;;14.80;99.90;;;;;;5128728;27;20217;-72
2022/04/14 07:44:16;;;;;;;20.80;13.98;;;14.80;99.90;;;;;;5146507;27;20019;-72
2022/04/14 07:46:45;;;;;;;19.23;13.63;;;15.00;99.90;;;;;;5146151;27;20109;-70
2022/04/14 07:49:34;;;;;;;;;;;;;;;;;;;;;
2022/04/14 07:52:00;;;;;;;16.77;13.50;;;14.90;99.90;;;;;;5131281;27;20360;-72
2022/04/14 07:54:26;;;;;;;22.25;15.38;;;14.90;99.90;;;;;;5128728;27;20035;-72
2022/04/14 07:56:59;;;;;;;18.77;14.07;;;14.80;99.90;;;;;;5129494;27;20046;-73
2022/04/14 07:59:37;;;;;;;17.48;14.30;;;14.80;99.90;;;;;;5129997;27;20110;-73
2022/04/14 08:02:05;;;;;;;17.75;14.00;;;15.20;99.90;;;;;;5112881;27;20260;-72
2022/04/14 08:04:55;;;;;;;19.50;14.50;;;14.90;99.90;;;;;;5128533;27;20034;-72
2022/04/14 08:07:28;;;;;;;18.38;14.70;;;14.90;99.90;;;;;;5128407;27;20070;-71
2022/04/14 08:10:05;;;;;;;18.73;14.60;;;15.40;99.90;;;;;;5113512;27;20033;-70
2022/04/14 08:12:34;;;;;;;19.30;14.13;;;15.30;99.90;;;;;;5128262;27;20045;-73
2022/04/14 08:14:59;;;;;;;18.42;15.23;;;15.40;99.90;;;;;;5112356;27;20022;-72
2022/04/14 08:17:25;;;;;;;19.98;15.40;;;15.50;99.90;;;;;;5111209;27;20106;-72
2022/04/14 08:19:51;;;;;;;18.60;14.57;;;15.30;99.90;;;;;;5128723;27;20030;-74
2022/04/14 08:22:16;;;;;;;19.33;14.77;;;15.70;99.90;;;;;;5145663;27;20341;-74
2022/04/14 08:24:47;;;;;;;17.60;14.32;;;15.70;99.90;;;;;;5111475;27;20220;-75
2022/04/14 08:27:13;;;;;;;18.40;14.20;;;15.40;99.90;;;;;;5129360;27;20042;-74
2022/04/14 08:29:39;;;;;;;20.38;14.00;;;15.60;99.90;;;;;;5128205;27;20033;-71
2022/04/14 08:32:07;;;;;;;19.58;13.50;;;15.70;99.90;;;;;;5128038;27;20101;-72
2022/04/14 08:34:33;;;;;;;20.50;14.52;;;15.90;99.90;;;;;;5145083;27;20142;-75
2022/04/14 08:36:59;;;;;;;18.48;14.68;;;16.00;99.90;;;;;;5145459;27;20030;-73
2022/04/14 08:39:26;;;;;;;19.48;14.75;;;16.10;99.90;;;;;;5144800;27;20059;-73
2022/04/14 08:42:01;;;;;;;23.15;13.98;;;16.10;99.90;;;;;;5128229;27;20031;-75
2022/04/14 08:44:30;;;;;;;19.70;14.98;;;16.40;99.90;;;;;;5145267;27;20189;-72
2022/04/14 08:46:58;;;;;;;16.95;14.00;;;16.40;99.90;;;;;;5128187;27;20087;-71
2022/04/14 08:49:24;;;;;;;16.05;13.73;;;16.30;99.90;;;;;;5127962;27;20376;-73
2022/04/14 08:51:55;;;;;;;17.45;14.15;;;16.30;99.90;;;;;;5124590;27;20054;-72
2022/04/14 08:54:30;;;;;;;17.90;14.45;;;16.50;99.90;;;;;;5110426;27;20351;-71
2022/04/14 08:57:02;;;;;;;19.15;14.43;;;16.70;99.90;;;;;;5141695;27;20318;-72
2022/04/14 08:59:29;;;;;;;17.65;13.65;;;16.90;99.90;;;;;;5132636;27;20043;-73
2022/04/14 09:01:56;;;;;;;15.15;12.75;;;16.90;99.90;;;;;;5104057;28;20031;-73
2022/04/14 09:04:21;;;;;;;16.20;13.50;;;17.20;99.90;;;;;;5103699;28;20035;-73
2022/04/14 09:06:48;;;;;;;17.60;14.43;;;17.20;99.90;;;;;;5103759;28;20040;-73
2022/04/14 09:09:14;;;;;;;15.30;13.02;;;17.30;99.90;;;;;;5103882;28;20027;-72
2022/04/14 09:11:42;;;;;;;15.18;13.43;;;17.40;99.90;;;;;;5087420;28;20454;-74
2022/04/14 09:14:08;;;;;;;16.35;12.70;;;17.60;99.90;;;;;;5120375;28;20027;-73
2022/04/14 09:16:37;;;;;;;14.68;11.45;;;17.60;99.90;;;;;;5108499;28;20031;-72
2022/04/14 09:19:03;;;;;;;15.45;11.95;;;17.90;99.90;;;;;;5086465;28;20106;-73
2022/04/14 09:21:56;;;;;;;13.95;11.25;;;18.00;99.90;;;;;;5103249;28;20024;-73
2022/04/14 09:25:00;;;;;;;11.52;9.18;;;18.10;99.90;;;;;;5108618;28;20031;-74
2022/04/14 09:30:25;;;;;;;10.48;9.32;;;17.80;99.90;;;;;;5106012;28;20077;-73
2022/04/14 09:32:56;;;;;;;15.48;9.80;;;17.80;99.90;;;;;;5071921;28;20144;-71
2022/04/14 09:35:23;;;;;;;11.13;8.05;;;18.30;99.90;;;;;;5103627;28;20232;-73
2022/04/14 09:38:13;;;;;;;10.07;7.60;;;18.30;99.90;;;;;;5137623;27;20027;-75
2022/04/14 09:40:40;;;;;;;9.57;7.35;;;18.30;99.90;;;;;;5102897;28;20252;-73
2022/04/14 09:43:16;;;;;;;10.32;7.63;;;17.80;99.90;;;;;;5103473;28;20026;-74
2022/04/14 09:45:46;;;;;;;8.93;6.90;;;18.00;99.90;;;;;;5086557;28;20065;-71
2022/04/14 09:48:16;;;;;;;9.75;7.70;;;18.10;99.90;;;;;;5103320;28;20032;-71
2022/04/14 09:50:47;;;;;;;10.25;7.50;;;18.00;99.90;;;;;;5103174;28;20040;-70
2022/04/14 09:53:15;;;;;;;8.82;7.40;;;17.70;99.90;;;;;;5120228;28;20055;-71
2022/04/14 09:56:01;;;;;;;9.27;7.40;;;18.40;99.90;;;;;;5119694;28;20226;-72
2022/04/14 09:58:27;;;;;;;9.38;6.75;;;18.30;99.90;;;;;;5119160;28;20036;-73
2022/04/14 10:00:59;;;;;;;8.35;7.07;;;18.80;99.90;;;;;;5086384;28;20050;-74
2022/04/14 10:03:27;;;;;;;9.27;7.70;;;18.00;99.90;;;;;;5085734;28;20314;-73
2022/04/14 10:06:04;;;;;;;8.55;6.13;;;17.50;99.90;;;;;;5103136;28;20031;-73
2022/04/14 10:08:49;;;;;;;8.90;7.43;;;18.10;99.90;;;;;;5102819;28;20219;-72
2022/04/14 10:11:14;;;;;;;9.82;7.57;;;18.10;99.90;;;;;;5089221;28;20088;-72
2022/04/14 10:13:41;;;;;;;7.25;5.90;;;18.60;99.90;;;;;;5085709;28;20029;-73
2022/04/14 10:16:07;;;;;;;9.23;6.57;;;18.00;99.90;;;;;;5120001;28;20031;-73
2022/04/14 10:18:33;;;;;;;8.50;6.95;;;17.10;99.90;;;;;;5102836;28;20254;-73
2022/04/14 10:20:59;;;;;;;9.93;6.90;;;17.20;99.90;;;;;;5103334;28;20338;-72
2022/04/14 10:23:28;;;;;;;8.73;6.78;;;17.30;99.90;;;;;;5102961;28;20039;-72
2022/04/14 10:25:54;;;;;;;8.55;6.82;;;17.40;99.90;;;;;;5140902;27;20198;-72
2022/04/14 10:28:21;;;;;;;8.73;6.50;;;17.70;99.90;;;;;;5123885;28;20043;-74
2022/04/14 10:30:49;;;;;;;9.38;6.93;;;18.60;99.90;;;;;;5106432;28;20253;-73
2022/04/14 10:33:17;;;;;;;8.50;6.63;;;18.40;99.90;;;;;;5107058;28;20147;-73
2022/04/14 10:35:43;;;;;;;8.48;6.50;;;18.30;99.90;;;;;;5143155;27;20133;-73
2022/04/14 10:38:15;;;;;;;9.35;6.88;;;18.30;99.90;;;;;;5127372;27;20035;-72
2022/04/14 10:40:53;;;;;;;8.02;7.13;;;18.00;99.90;;;;;;5144245;27;20027;-72
2022/04/14 10:43:23;;;;;;;9.07;7.07;;;18.90;99.90;;;;;;5144220;27;20213;-74
2022/04/14 10:45:57;;;;;;;10.32;7.18;;;18.80;99.90;;;;;;5143875;27;20039;-76
2022/04/14 10:49:02;;;;;;;6.28;4.88;;;18.70;99.90;;;;;;5144355;27;20046;-76
2022/04/14 10:51:29;;;;;;;6.67;5.10;;;17.70;99.90;;;;;;5143454;27;20082;-74
2022/04/14 10:54:01;;;;;;;8.55;5.20;;;17.70;99.90;;;;;;5110140;27;20321;-74
2022/04/14 10:56:47;;;;;;;8.10;5.50;;;17.20;99.90;;;;;;5126880;27;20058;-74
2022/04/14 10:59:19;;;;;;;7.18;4.90;;;18.30;99.90;;;;;;5126809;27;20340;-75
2022/04/14 11:01:54;;;;;;;6.45;5.07;;;18.90;99.90;;;;;;5143264;27;20035;-75
2022/04/14 11:04:28;;;;;;;9.07;5.20;;;18.30;99.90;;;;;;5143808;27;20043;-73
2022/04/14 11:07:34;;;;;;;7.50;4.85;;;18.30;99.90;;;;;;5143840;27;20102;-73
2022/04/14 11:10:00;;;;;;;;;;;18.40;99.90;;;;;;5100146;27;20225;-73
2022/04/14 11:12:40;;;;;;;5.70;4.22;;;17.50;99.90;;;;;;5144019;27;19943;-73
2022/04/14 11:15:08;;;;;;;7.40;5.22;;;17.20;99.90;;;;;;5143782;27;20027;-73
2022/04/14 11:17:37;;;;;;;8.98;6.57;;;17.40;99.90;;;;;;5126271;27;20031;-73
2022/04/14 11:20:16;;;;;;;8.45;6.18;;;17.30;99.90;;;;;;5126481;27;20027;-73
2022/04/14 11:23:04;;;;;;;9.25;6.32;;;16.90;99.90;;;;;;5142998;27;20199;-73
2022/04/14 11:25:44;;;;;;;7.47;6.10;;;17.20;99.90;;;;;;5126145;27;20129;-73
2022/04/14 11:28:33;;;;;;;9.10;5.80;;;17.10;99.90;;;;;;5143498;27;20031;-73
2022/04/14 11:31:05;;;;;;;8.70;5.13;;;16.60;99.90;;;;;;5143470;27;20027;-73
2022/04/14 11:33:30;;;;;;;10.90;5.25;;;16.40;99.90;;;;;;5126050;27;20035;-73
2022/04/14 11:36:19;;;;;;;9.15;5.13;;;16.60;99.90;;;;;;5142584;27;20031;-73
2022/04/14 11:38:55;;;;;;;7.05;5.57;;;17.00;99.90;;;;;;5125606;27;20065;-72
2022/04/14 11:41:41;;;;;;;7.43;5.22;;;17.70;99.90;;;;;;5125884;27;20114;-73
2022/04/14 11:44:08;;;;;;;6.45;4.78;;;17.80;99.90;;;;;;5142918;27;20370;-74
2022/04/14 11:46:37;;;;;;;6.70;4.68;;;17.60;99.90;;;;;;5142603;27;20043;-73
2022/04/14 11:49:14;;;;;;;5.85;3.80;;;17.70;99.90;;;;;;5092643;27;20023;-73
2022/04/14 11:51:42;;;;;;;6.60;3.85;;;17.70;99.90;;;;;;5142357;27;20221;-73
2022/04/14 11:54:08;;;;;;;7.50;4.18;;;17.60;99.90;;;;;;5142899;27;20027;-73
2022/04/14 11:56:37;;;;;;;4.57;3.03;;;17.80;99.90;;;;;;5125657;27;20203;-73
2022/04/14 11:59:08;;;;;;;5.03;3.63;;;17.80;99.90;;;;;;5126158;27;20209;-72
2022/04/14 12:01:48;;;;;;;4.82;3.13;;;17.80;99.90;;;;;;5109131;27;20035;-72
2022/04/14 12:04:14;;;;;;;6.65;3.40;;;17.90;99.90;;;;;;5125644;27;20045;-73
2022/04/14 12:06:53;;;;;;;5.15;3.45;;;17.50;99.90;;;;;;5125218;27;20205;-73
2022/04/14 12:09:24;;;;;;;6.20;3.63;;;17.70;99.90;;;;;;5142864;27;20302;-73
2022/04/14 12:11:50;;;;;;;5.57;3.50;;;17.60;99.90;;;;;;5125192;27;20077;-74
2022/04/14 12:14:16;;;;;;;6.70;4.70;;;17.70;99.90;;;;;;5091539;27;20050;-73
2022/04/14 12:16:50;;;;;;;5.90;4.30;;;17.60;99.90;;;;;;5142138;27;20023;-73
2022/04/14 12:19:16;;;;;;;6.60;3.95;;;17.40;99.90;;;;;;5124905;27;20027;-73
2022/04/14 12:21:59;;;;;;;6.43;3.30;;;17.50;99.90;;;;;;5107682;27;20333;-73
2022/04/14 12:24:25;;;;;;;5.05;2.92;;;17.40;99.90;;;;;;5125251;27;20179;-74
2022/04/14 12:26:56;;;;;;;5.93;4.00;;;17.20;99.90;;;;;;5123317;27;20019;-73
2022/04/14 12:29:22;;;;;;;6.05;3.67;;;17.10;99.90;;;;;;5117793;28;20076;-73
2022/04/14 12:31:49;;;;;;;5.50;4.80;;;17.00;99.90;;;;;;5129967;27;20028;-72
2022/04/14 12:34:15;;;;;;;9.73;5.28;;;17.00;99.90;;;;;;5106391;27;20031;-74
2022/04/14 12:36:43;;;;;;;8.13;5.45;;;16.80;99.90;;;;;;5124509;27;20075;-73
2022/04/14 12:39:27;;;;;;;7.28;5.47;;;16.80;99.90;;;;;;5109063;27;20027;-72
2022/04/14 12:41:56;;;;;;;7.13;4.80;;;16.90;99.90;;;;;;5105513;27;20043;-73